Bearn, Canada
Current Conditions -  °F | °C
As of 3:00 AM on Thursday 29 Jan 2015 (Local Time) from CYXR Reporting Station
Overcast Overcast  
Wind Chill: -2°   Ceiling: 8500
Heat Index: 10°   Visibility: 9mi
Dew Point:   Wind: 9mph
Humidity: 85%   Direction: 150°SSE
Pressure: 30.04"   Gusts: NA
Location:  47.28°N, 79.33°W
Report Text: CYXR 290800Z AUTO 15008KT 9SM FEW010 OVC085 M12/M14 A3004 RMK SLP195
Loading
Personal Weather Stations






























Interactive Weather Map New forecast layout! Learn more

10-Day Weather Forecast

Advertisements
Track Severe Weather on mobile